Time;durP1;ratioP1;P1;durP2;ratioP2;P2;SDS_P1;SDS_P2;PMS_P1;PMS_P2;Temp;Humidity;BMP_temperature;BMP_pressure;BME280_temperature;BME280_humidity;BME280_pressure;Samples;Min_cycle;Max_cycle;Signal;HPM_P1;HPM_P2
2023/07/09 00:01:17;;;;;;;8.18;5.93;;;23.50;72.00;;;;;;5019465;28;20046;-59
2023/07/09 00:03:48;;;;;;;;;;;23.40;71.90;;;;;;5021251;28;20033;-59
2023/07/09 00:06:14;;;;;;;9.60;6.18;;;23.40;71.70;;;;;;5022208;28;20367;-60
2023/07/09 00:08:44;;;;;;;6.55;5.60;;;23.40;71.90;;;;;;5020331;28;20129;-58
2023/07/09 00:11:10;;;;;;;7.28;5.93;;;23.40;72.10;;;;;;5021604;28;20061;-58
2023/07/09 00:13:36;;;;;;;7.72;6.15;;;23.30;72.20;;;;;;5022580;28;20168;-58
2023/07/09 00:16:14;;;;;;;8.18;5.90;;;23.30;72.30;;;;;;5001654;28;20060;-59
2023/07/09 00:18:40;;;;;;;13.77;6.40;;;23.30;72.30;;;;;;5004114;28;20104;-59
2023/07/09 00:21:06;;;;;;;9.63;6.20;;;23.30;72.40;;;;;;5020302;28;20406;-58
2023/07/09 00:23:33;;;;;;;8.13;6.30;;;23.30;72.50;;;;;;5021074;28;20041;-59
2023/07/09 00:25:58;;;;;;;9.57;6.20;;;23.20;72.60;;;;;;5019850;28;20119;-59
2023/07/09 00:28:25;;;;;;;8.23;6.32;;;23.20;72.60;;;;;;5022210;28;20482;-59
2023/07/09 00:30:50;;;;;;;11.20;6.80;;;23.20;72.60;;;;;;5018965;28;20068;-59
2023/07/09 00:33:20;;;;;;;9.52;5.80;;;23.20;72.80;;;;;;5019576;28;20038;-59
2023/07/09 00:35:48;;;;;;;8.55;6.13;;;23.20;72.90;;;;;;5001023;28;20898;-58
2023/07/09 00:38:21;;;;;;;7.82;6.22;;;23.10;72.90;;;;;;5017054;28;20129;-57
2023/07/09 00:41:17;;;;;;;10.07;6.65;;;23.10;72.90;;;;;;5020708;28;20041;-59
2023/07/09 00:43:44;;;;;;;7.90;6.03;;;23.10;72.90;;;;;;5019164;28;20096;-59
2023/07/09 00:46:36;;;;;;;10.98;6.32;;;23.10;73.00;;;;;;5001738;28;20487;-60
2023/07/09 00:49:08;;;;;;;8.53;6.20;;;23.10;72.90;;;;;;5019728;28;20464;-59
2023/07/09 00:51:41;;;;;;;12.52;6.15;;;23.10;73.10;;;;;;5018307;28;20328;-59
2023/07/09 00:54:41;;;;;;;8.82;6.50;;;23.00;73.20;;;;;;5017745;28;20127;-60
2023/07/09 00:57:19;;;;;;;7.90;6.88;;;23.00;73.40;;;;;;5015248;28;20053;-59
2023/07/09 01:00:00;;;;;;;13.23;6.32;;;22.90;73.50;;;;;;5017091;28;20057;-59
2023/07/09 01:02:26;;;;;;;8.43;6.30;;;22.90;73.70;;;;;;5016695;28;20099;-59
2023/07/09 01:04:56;;;;;;;10.18;6.30;;;22.90;73.80;;;;;;5020057;28;20037;-59
2023/07/09 01:07:22;;;;;;;16.00;6.70;;;22.90;73.90;;;;;;5003285;28;20045;-59
2023/07/09 01:09:48;;;;;;;7.32;6.40;;;22.80;73.90;;;;;;5020235;28;20037;-57
2023/07/09 01:12:18;;;;;;;9.73;6.72;;;22.90;74.10;;;;;;4984424;28;20030;-57
2023/07/09 01:14:46;;;;;;;8.48;6.47;;;22.80;74.10;;;;;;5019919;28;20392;-58
2023/07/09 01:17:12;;;;;;;8.48;6.38;;;22.80;74.20;;;;;;5016033;28;20041;-58
2023/07/09 01:19:43;;;;;;;9.15;6.35;;;22.80;74.30;;;;;;5019846;28;20046;-59
2023/07/09 01:22:15;;;;;;;10.95;6.40;;;22.80;74.30;;;;;;5000940;28;20055;-59
2023/07/09 01:25:06;;;;;;;8.52;6.63;;;22.80;74.40;;;;;;5000167;28;20046;-59
2023/07/09 01:27:39;;;;;;;9.07;6.40;;;22.80;74.30;;;;;;5000567;28;20046;-59
2023/07/09 01:30:10;;;;;;;12.75;7.45;;;22.80;74.50;;;;;;4978719;28;20132;-59
2023/07/09 01:32:37;;;;;;;9.27;6.32;;;22.70;74.60;;;;;;4995228;28;20038;-59
2023/07/09 01:35:06;;;;;;;12.10;6.82;;;22.70;74.70;;;;;;4977653;28;20160;-58
2023/07/09 01:37:37;;;;;;;11.20;6.53;;;22.70;74.70;;;;;;4999530;28;20365;-59
2023/07/09 01:40:05;;;;;;;10.50;6.68;;;22.70;74.70;;;;;;4996485;28;20128;-58
2023/07/09 01:42:31;;;;;;;10.93;6.85;;;22.70;74.80;;;;;;4979071;28;20058;-58
2023/07/09 01:44:56;;;;;;;9.60;6.82;;;22.70;74.70;;;;;;4994734;28;20046;-58
2023/07/09 01:47:23;;;;;;;7.53;6.45;;;22.70;74.70;;;;;;4995652;28;20121;-59
2023/07/09 01:49:50;;;;;;;9.88;7.10;;;22.60;74.60;;;;;;5001391;28;20117;-59
2023/07/09 01:52:18;;;;;;;8.75;6.25;;;22.70;74.70;;;;;;4977367;28;20057;-59
2023/07/09 01:54:49;;;;;;;10.23;6.90;;;22.70;74.70;;;;;;4996271;28;20467;-58
2023/07/09 01:57:23;;;;;;;10.15;6.32;;;22.70;75.30;;;;;;4995531;28;20570;-59
2023/07/09 01:59:50;;;;;;;10.68;6.57;;;22.70;74.60;;;;;;4995786;28;20064;-59
2023/07/09 02:02:20;;;;;;;11.15;6.88;;;22.60;74.60;;;;;;4996052;28;20042;-59
2023/07/09 02:04:47;;;;;;;11.18;7.10;;;22.60;74.50;;;;;;4999412;28;20034;-59
2023/07/09 02:07:13;;;;;;;9.70;6.60;;;22.60;74.60;;;;;;4997947;28;20038;-59
2023/07/09 02:09:39;;;;;;;8.85;6.53;;;22.60;74.50;;;;;;4998226;28;20042;-59
2023/07/09 02:12:05;;;;;;;8.38;6.90;;;22.60;74.60;;;;;;4997253;28;20110;-58
2023/07/09 02:14:31;;;;;;;9.02;6.25;;;22.60;74.70;;;;;;4996806;28;20120;-59
2023/07/09 02:16:57;;;;;;;9.02;6.70;;;22.60;74.80;;;;;;4997005;28;20496;-58
2023/07/09 02:19:23;;;;;;;11.77;6.72;;;22.60;75.00;;;;;;4997730;28;20180;-58
2023/07/09 02:21:48;;;;;;;8.00;6.72;;;22.50;75.00;;;;;;5014754;28;20103;-58
2023/07/09 02:24:14;;;;;;;8.52;6.75;;;22.50;75.10;;;;;;5016735;28;20045;-59
2023/07/09 02:26:40;;;;;;;9.45;6.53;;;22.50;75.20;;;;;;5014804;28;20049;-57
2023/07/09 02:29:06;;;;;;;11.30;6.82;;;22.40;75.20;;;;;;5017414;28;20152;-59
2023/07/09 02:31:33;;;;;;;10.43;6.40;;;22.40;75.30;;;;;;5017562;28;20121;-59
2023/07/09 02:33:59;;;;;;;9.45;6.45;;;22.40;75.30;;;;;;5016089;28;20099;-57
2023/07/09 02:36:25;;;;;;;11.77;6.32;;;22.40;75.20;;;;;;5017712;28;20046;-59
2023/07/09 02:38:51;;;;;;;12.77;7.60;;;22.40;75.20;;;;;;5017581;28;20044;-58
2023/07/09 02:41:17;;;;;;;8.85;6.38;;;22.40;75.30;;;;;;5017646;28;20399;-58
2023/07/09 02:43:43;;;;;;;9.18;6.90;;;22.40;75.40;;;;;;5016882;28;20065;-58
2023/07/09 02:46:09;;;;;;;10.40;7.22;;;22.40;75.50;;;;;;5016858;28;20059;-58
2023/07/09 02:48:34;;;;;;;14.43;6.28;;;22.30;75.50;;;;;;5015727;28;20030;-58
2023/07/09 02:51:00;;;;;;;9.68;6.78;;;22.30;75.60;;;;;;4982800;28;20603;-58
2023/07/09 02:53:27;;;;;;;11.35;7.07;;;22.30;75.70;;;;;;5018224;28;20057;-57
2023/07/09 02:55:53;;;;;;;9.88;6.53;;;22.30;75.80;;;;;;5019087;28;20113;-58
2023/07/09 02:58:19;;;;;;;11.82;6.90;;;22.20;75.90;;;;;;5016775;28;20129;-57
2023/07/09 03:00:52;;;;;;;11.70;7.05;;;22.20;76.00;;;;;;4987994;28;20074;-57
2023/07/09 03:03:19;;;;;;;10.25;6.68;;;22.20;75.90;;;;;;5014445;28;20042;-57
2023/07/09 03:05:48;;;;;;;8.85;6.88;;;22.20;75.90;;;;;;4984850;28;20042;-57
2023/07/09 03:08:15;;;;;;;13.93;6.72;;;22.20;76.10;;;;;;5017123;28;20041;-58
2023/07/09 03:10:41;;;;;;;9.90;7.10;;;22.20;76.00;;;;;;5019080;28;20037;-57
2023/07/09 03:13:07;;;;;;;9.23;6.85;;;22.20;75.90;;;;;;5018178;28;20095;-59
2023/07/09 03:15:32;;;;;;;11.82;6.88;;;22.20;75.90;;;;;;5018154;28;20045;-57
2023/07/09 03:17:58;;;;;;;10.70;7.05;;;22.20;76.00;;;;;;5016075;28;20475;-59
2023/07/09 03:20:25;;;;;;;9.43;6.80;;;22.20;76.00;;;;;;5018657;28;20112;-56
2023/07/09 03:22:51;;;;;;;12.88;6.82;;;22.20;76.10;;;;;;5018598;28;20052;-59
2023/07/09 03:25:16;;;;;;;7.38;6.45;;;22.20;76.20;;;;;;5016905;28;20026;-59
2023/07/09 03:27:42;;;;;;;10.63;6.55;;;22.10;76.30;;;;;;5017660;28;20041;-58
2023/07/09 03:30:08;;;;;;;8.02;7.00;;;22.10;76.40;;;;;;5002628;28;20076;-57
2023/07/09 03:32:34;;;;;;;7.63;6.45;;;22.10;76.50;;;;;;5021204;28;20049;-58
2023/07/09 03:35:00;;;;;;;11.07;6.60;;;22.10;76.60;;;;;;5013359;28;20049;-58
2023/07/09 03:37:25;;;;;;;11.32;6.70;;;22.10;76.80;;;;;;5016314;28;20144;-59
2023/07/09 03:39:51;;;;;;;11.30;7.00;;;22.10;76.80;;;;;;4999453;28;20060;-58
2023/07/09 03:42:17;;;;;;;10.27;7.10;;;22.00;76.80;;;;;;5014277;28;20048;-59
2023/07/09 03:44:42;;;;;;;9.98;7.15;;;22.00;76.90;;;;;;5015627;28;20586;-59
2023/07/09 03:47:08;;;;;;;12.13;6.95;;;22.00;77.00;;;;;;5020686;28;20108;-59
2023/07/09 03:49:34;;;;;;;10.93;6.80;;;22.00;77.10;;;;;;5018938;28;20038;-59
2023/07/09 03:52:00;;;;;;;9.93;7.10;;;22.00;77.20;;;;;;5016403;28;20403;-58
2023/07/09 03:54:25;;;;;;;8.85;6.57;;;22.00;77.20;;;;;;5020680;28;20141;-58
2023/07/09 03:56:51;;;;;;;9.90;7.13;;;22.00;77.30;;;;;;5020514;28;20048;-59
2023/07/09 03:59:17;;;;;;;12.07;6.90;;;22.00;77.40;;;;;;5019971;28;20081;-59
2023/07/09 04:01:46;;;;;;;9.70;7.40;;;22.00;77.40;;;;;;5016937;28;20076;-58
2023/07/09 04:04:13;;;;;;;9.82;6.50;;;22.00;77.60;;;;;;5018465;28;20407;-59
2023/07/09 04:06:39;;;;;;;8.90;6.47;;;22.00;77.80;;;;;;5018381;28;20073;-59
2023/07/09 04:09:04;;;;;;;9.80;6.97;;;21.90;77.90;;;;;;5018583;28;20095;-58
2023/07/09 04:11:30;;;;;;;8.70;6.93;;;21.90;78.10;;;;;;5019587;28;20042;-57
2023/07/09 04:13:56;;;;;;;11.75;6.80;;;22.00;78.20;;;;;;5003593;28;20041;-58
2023/07/09 04:16:22;;;;;;;8.90;6.95;;;21.90;78.30;;;;;;5000198;28;20164;-58
2023/07/09 04:18:47;;;;;;;15.05;6.63;;;21.90;78.30;;;;;;5020011;28;20076;-59
2023/07/09 04:21:13;;;;;;;12.23;6.95;;;22.00;78.40;;;;;;5018388;28;20132;-58
2023/07/09 04:23:39;;;;;;;8.93;6.60;;;21.90;78.50;;;;;;4991137;28;20037;-59
2023/07/09 04:26:08;;;;;;;9.23;6.90;;;21.90;78.70;;;;;;5020061;28;20056;-59
2023/07/09 04:28:34;;;;;;;12.18;6.88;;;22.00;78.90;;;;;;5003140;28;20047;-59
2023/07/09 04:31:00;;;;;;;10.70;7.20;;;22.00;79.00;;;;;;5002595;28;20045;-59
2023/07/09 04:33:26;;;;;;;11.10;7.00;;;22.00;79.10;;;;;;5017388;28;20046;-59
2023/07/09 04:35:52;;;;;;;10.05;7.07;;;22.00;79.20;;;;;;4999519;28;20045;-55
2023/07/09 04:38:17;;;;;;;11.57;6.63;;;22.00;79.20;;;;;;5021448;28;20388;-59
2023/07/09 04:40:43;;;;;;;9.48;6.53;;;22.00;79.40;;;;;;5020281;28;20448;-59
2023/07/09 04:43:09;;;;;;;12.07;7.35;;;22.00;79.60;;;;;;5020792;28;20033;-59
2023/07/09 04:45:35;;;;;;;9.43;6.90;;;22.00;79.60;;;;;;5005424;28;20030;-59
2023/07/09 04:48:01;;;;;;;9.27;6.78;;;22.10;79.70;;;;;;5019444;28;20030;-58
2023/07/09 04:50:27;;;;;;;9.75;7.30;;;22.10;79.70;;;;;;5022840;28;20120;-58
2023/07/09 04:52:53;;;;;;;9.55;6.95;;;22.10;79.70;;;;;;5019059;28;20057;-59
2023/07/09 04:55:18;;;;;;;10.43;6.97;;;22.10;79.80;;;;;;5019130;28;20522;-59
2023/07/09 04:57:45;;;;;;;9.27;6.60;;;22.10;79.90;;;;;;5000761;28;20052;-59
2023/07/09 05:00:12;;;;;;;9.10;6.85;;;22.20;80.10;;;;;;5018448;28;20045;-57
2023/07/09 05:02:37;;;;;;;15.23;6.78;;;22.20;80.20;;;;;;5019619;28;20042;-59
2023/07/09 05:05:03;;;;;;;12.18;6.68;;;22.20;80.10;;;;;;5001383;28;20042;-59
2023/07/09 05:07:29;;;;;;;8.32;7.07;;;22.20;80.20;;;;;;5018154;28;20045;-59
2023/07/09 05:09:55;;;;;;;9.45;6.78;;;22.30;80.30;;;;;;5001181;28;20096;-59
2023/07/09 05:12:21;;;;;;;8.80;6.88;;;22.30;80.50;;;;;;5018724;28;20116;-59
2023/07/09 05:14:47;;;;;;;10.57;6.80;;;22.30;80.60;;;;;;5018893;28;20077;-59
2023/07/09 05:17:12;;;;;;;10.65;7.00;;;22.40;80.70;;;;;;5000926;28;20112;-58
2023/07/09 05:19:38;;;;;;;9.45;6.57;;;22.40;80.70;;;;;;5018312;28;20595;-59
2023/07/09 05:22:04;;;;;;;11.77;7.10;;;22.40;80.70;;;;;;5017701;28;20072;-59
2023/07/09 05:24:30;;;;;;;10.98;6.88;;;22.50;80.90;;;;;;5018598;28;20049;-59
2023/07/09 05:26:56;;;;;;;8.52;6.60;;;22.60;80.90;;;;;;5017742;28;20037;-58
2023/07/09 05:29:23;;;;;;;10.93;7.18;;;22.60;80.90;;;;;;5019449;28;20123;-59
2023/07/09 05:31:48;;;;;;;12.35;6.78;;;22.60;81.10;;;;;;5017543;28;20476;-59
2023/07/09 05:34:14;;;;;;;10.10;7.20;;;22.70;80.90;;;;;;5013621;28;20040;-58
2023/07/09 05:36:40;;;;;;;12.57;7.00;;;22.70;81.00;;;;;;5017784;28;20261;-60
2023/07/09 05:39:06;;;;;;;12.05;7.43;;;22.70;81.00;;;;;;5015197;28;20098;-59
2023/07/09 05:41:32;;;;;;;11.98;6.97;;;22.80;81.00;;;;;;5001394;28;20493;-59
2023/07/09 05:43:57;;;;;;;12.02;7.00;;;22.80;81.10;;;;;;5016263;28;20045;-60
2023/07/09 05:46:23;;;;;;;14.25;6.88;;;22.90;81.20;;;;;;5017342;28;20036;-59
2023/07/09 05:48:49;;;;;;;11.73;6.90;;;22.90;81.10;;;;;;5013838;28;20044;-60
2023/07/09 05:51:15;;;;;;;10.35;7.05;;;22.90;80.80;;;;;;5017070;28;20041;-59
2023/07/09 05:53:42;;;;;;;9.32;7.15;;;23.00;80.90;;;;;;5017892;28;20404;-59
2023/07/09 05:56:08;;;;;;;12.05;7.45;;;23.00;81.20;;;;;;5017167;28;20038;-59
2023/07/09 05:58:34;;;;;;;10.23;7.25;;;23.10;81.00;;;;;;5011565;28;20045;-59
2023/07/09 06:01:00;;;;;;;10.40;7.00;;;23.20;81.10;;;;;;5011929;28;20485;-59
2023/07/09 06:03:27;;;;;;;10.18;7.22;;;23.20;81.30;;;;;;5016184;28;20056;-60
2023/07/09 06:05:53;;;;;;;11.13;7.00;;;23.20;81.40;;;;;;5001390;28;20065;-58
2023/07/09 06:08:20;;;;;;;19.23;7.35;;;23.20;81.50;;;;;;5016826;28;20037;-59
2023/07/09 06:10:58;;;;;;;17.13;7.68;;;23.20;81.70;;;;;;5013095;28;20038;-59
2023/07/09 06:13:25;;;;;;;10.52;7.20;;;23.20;81.80;;;;;;5016602;28;20034;-59
2023/07/09 06:15:52;;;;;;;9.52;7.57;;;23.30;81.90;;;;;;5016017;28;20224;-60
2023/07/09 06:18:19;;;;;;;9.13;6.95;;;23.30;82.00;;;;;;5018057;28;20076;-59
2023/07/09 06:20:52;;;;;;;9.80;7.00;;;23.30;82.20;;;;;;5017532;28;20049;-59
2023/07/09 06:23:19;;;;;;;11.02;7.57;;;23.30;82.60;;;;;;4999774;28;20049;-60
2023/07/09 06:25:47;;;;;;;12.45;7.68;;;23.40;82.90;;;;;;5014139;28;20038;-59
2023/07/09 06:28:21;;;;;;;12.20;8.20;;;23.40;83.30;;;;;;5017938;28;20072;-60
2023/07/09 06:30:48;;;;;;;10.65;7.55;;;23.50;83.60;;;;;;4999914;28;20818;-60
2023/07/09 06:33:15;;;;;;;13.02;7.68;;;23.50;84.20;;;;;;5013027;28;20888;-60
2023/07/09 06:36:08;;;;;;;9.45;7.50;;;23.60;83.70;;;;;;5012839;28;20057;-60
2023/07/09 06:38:34;;;;;;;8.70;6.50;;;23.70;84.10;;;;;;5016556;28;20049;-60
2023/07/09 06:40:59;;;;;;;12.75;7.55;;;23.80;84.10;;;;;;5012727;28;20392;-60
2023/07/09 06:43:25;;;;;;;10.38;7.07;;;23.90;83.90;;;;;;5017356;28;20081;-59
2023/07/09 06:45:52;;;;;;;13.40;7.57;;;24.10;83.80;;;;;;5016347;28;20461;-60
2023/07/09 06:48:19;;;;;;;10.25;7.35;;;24.20;83.70;;;;;;5013439;28;20033;-59
2023/07/09 06:50:45;;;;;;;9.43;7.43;;;24.30;83.60;;;;;;5018357;28;20053;-60
2023/07/09 06:53:12;;;;;;;11.88;7.68;;;24.40;83.40;;;;;;5013290;28;20041;-58
2023/07/09 06:55:37;;;;;;;10.70;7.75;;;24.40;83.20;;;;;;5014188;28;20438;-60
2023/07/09 06:58:03;;;;;;;11.88;7.72;;;24.50;83.40;;;;;;5013596;28;20045;-60
2023/07/09 07:00:29;;;;;;;11.48;7.80;;;24.50;83.30;;;;;;5014922;28;20045;-60
2023/07/09 07:02:55;;;;;;;12.93;7.55;;;24.50;83.60;;;;;;5013083;28;20077;-58
2023/07/09 07:05:20;;;;;;;10.05;7.30;;;24.60;83.70;;;;;;5020233;28;20038;-59
2023/07/09 07:07:46;;;;;;;13.90;7.75;;;24.60;83.80;;;;;;5019458;28;20029;-60
2023/07/09 07:10:12;;;;;;;12.95;7.22;;;24.80;83.90;;;;;;5020266;28;20119;-60
2023/07/09 07:12:46;;;;;;;14.45;7.70;;;24.90;84.10;;;;;;5020088;28;20042;-59
2023/07/09 07:15:15;;;;;;;12.40;7.60;;;25.00;83.70;;;;;;5018468;28;20049;-58
2023/07/09 07:17:41;;;;;;;12.23;7.55;;;25.10;83.30;;;;;;5017338;28;20053;-58
2023/07/09 07:20:08;;;;;;;9.00;7.28;;;25.30;83.30;;;;;;5002262;28;20095;-59
2023/07/09 07:22:34;;;;;;;10.20;7.45;;;25.40;83.70;;;;;;5002544;28;20428;-59
2023/07/09 07:25:00;;;;;;;13.23;8.15;;;25.60;83.80;;;;;;4997253;28;20104;-59
2023/07/09 07:27:26;;;;;;;10.23;7.50;;;25.80;83.00;;;;;;4992073;28;20046;-58
2023/07/09 07:29:52;;;;;;;9.57;7.35;;;25.90;82.70;;;;;;4988816;28;20057;-59
2023/07/09 07:32:17;;;;;;;12.80;8.00;;;26.10;82.60;;;;;;4997785;28;20172;-59
2023/07/09 07:34:43;;;;;;;10.07;7.05;;;26.20;82.20;;;;;;5001291;28;20042;-60
2023/07/09 07:37:09;;;;;;;11.63;7.60;;;26.30;82.60;;;;;;4999772;28;20040;-60
2023/07/09 07:39:35;;;;;;;10.68;7.65;;;26.40;82.70;;;;;;5003609;28;20045;-59
2023/07/09 07:42:01;;;;;;;10.80;7.78;;;26.50;82.90;;;;;;5003330;28;20123;-59
2023/07/09 07:44:26;;;;;;;11.52;7.70;;;26.50;82.50;;;;;;5003643;28;20101;-60
2023/07/09 07:46:52;;;;;;;11.02;7.28;;;26.50;82.80;;;;;;5002453;28;20112;-58
2023/07/09 07:49:18;;;;;;;12.85;7.05;;;26.50;82.70;;;;;;5000856;28;20374;-60
2023/07/09 07:51:44;;;;;;;11.75;8.10;;;26.50;83.10;;;;;;5000543;28;20049;-58
2023/07/09 07:54:10;;;;;;;9.25;7.90;;;26.50;83.60;;;;;;5003037;28;20065;-58
2023/07/09 07:56:36;;;;;;;10.68;7.60;;;26.60;83.80;;;;;;5003787;28;20129;-59
2023/07/09 07:59:03;;;;;;;11.77;7.93;;;26.70;84.50;;;;;;5001418;28;20069;-59
2023/07/09 08:01:29;;;;;;;10.95;8.00;;;26.90;84.70;;;;;;5000496;28;20049;-57
2023/07/09 08:03:55;;;;;;;14.25;8.02;;;27.00;84.10;;;;;;5001107;28;20388;-59
2023/07/09 08:06:21;;;;;;;10.77;7.50;;;27.20;84.00;;;;;;5003566;28;20403;-58
2023/07/09 08:08:47;;;;;;;11.45;7.60;;;27.30;83.40;;;;;;5005325;28;20046;-60
2023/07/09 08:11:14;;;;;;;11.27;7.80;;;27.40;83.90;;;;;;5006867;28;20626;-59
2023/07/09 08:13:40;;;;;;;10.77;7.50;;;27.60;82.50;;;;;;5001697;28;20053;-59
2023/07/09 08:16:07;;;;;;;13.52;7.45;;;27.70;82.40;;;;;;5001079;28;20476;-60
2023/07/09 08:18:33;;;;;;;14.73;8.00;;;27.90;83.20;;;;;;5000828;28;20659;-60
2023/07/09 08:21:03;;;;;;;16.35;7.68;;;28.00;82.90;;;;;;5002960;28;20508;-59
2023/07/09 08:23:29;;;;;;;11.55;7.60;;;28.20;82.20;;;;;;5002862;28;20096;-59
2023/07/09 08:26:00;;;;;;;10.65;7.53;;;28.30;82.60;;;;;;5003301;28;20050;-59
2023/07/09 08:28:26;;;;;;;18.77;9.10;;;28.40;81.70;;;;;;5001645;28;20068;-59
2023/07/09 08:30:53;;;;;;;11.00;7.82;;;28.50;81.00;;;;;;5000696;28;20033;-60
2023/07/09 08:33:19;;;;;;;14.32;8.18;;;28.50;80.90;;;;;;4999921;28;20045;-59
2023/07/09 08:35:45;;;;;;;12.15;7.80;;;28.60;80.20;;;;;;5000248;28;20392;-58
2023/07/09 08:38:11;;;;;;;11.63;8.25;;;28.70;79.80;;;;;;5001475;28;20042;-60
2023/07/09 08:41:00;;;;;;;14.18;8.48;;;28.70;79.80;;;;;;5001622;28;20523;-60
2023/07/09 08:43:39;;;;;;;11.60;8.60;;;28.80;79.90;;;;;;5001330;28;20125;-60
2023/07/09 08:46:30;;;;;;;13.38;9.20;;;28.80;79.30;;;;;;5001856;28;20038;-60
2023/07/09 08:48:58;;;;;;;17.25;8.68;;;29.00;79.60;;;;;;5000122;28;20038;-60
2023/07/09 08:51:42;;;;;;;13.07;8.95;;;29.10;79.70;;;;;;5001327;28;20038;-59
2023/07/09 08:54:31;;;;;;;14.90;9.40;;;29.20;79.40;;;;;;5009174;28;20043;-59
2023/07/09 08:57:10;;;;;;;13.57;10.20;;;29.40;79.10;;;;;;5002610;28;20046;-59
2023/07/09 08:59:37;;;;;;;19.25;10.52;;;29.40;78.20;;;;;;5001090;28;20099;-60
2023/07/09 09:02:09;;;;;;;13.73;9.82;;;29.50;77.70;;;;;;4999809;28;20485;-59
2023/07/09 09:04:37;;;;;;;22.05;11.57;;;29.60;78.20;;;;;;5000940;28;20053;-60
2023/07/09 09:07:31;;;;;;;14.43;10.82;;;29.80;77.60;;;;;;5000171;28;20030;-60
2023/07/09 09:10:01;;;;;;;19.50;10.23;;;29.80;78.10;;;;;;5001747;28;20049;-60
2023/07/09 09:12:29;;;;;;;12.95;10.40;;;30.00;78.40;;;;;;4999552;28;20139;-60
2023/07/09 09:15:04;;;;;;;14.68;10.65;;;30.00;78.00;;;;;;5002287;28;20038;-60
2023/07/09 09:17:34;;;;;;;16.60;10.40;;;30.10;77.50;;;;;;5000222;28;20492;-60
2023/07/09 09:20:04;;;;;;;15.85;10.98;;;30.20;77.60;;;;;;5001146;28;20101;-59
2023/07/09 09:22:41;;;;;;;15.77;10.98;;;30.30;77.20;;;;;;5018866;28;20053;-58
2023/07/09 09:25:20;;;;;;;13.02;10.15;;;30.40;76.70;;;;;;5019322;28;20042;-60
2023/07/09 09:27:46;;;;;;;14.30;10.75;;;30.40;76.80;;;;;;5019463;28;20051;-60
2023/07/09 09:30:23;;;;;;;15.85;11.77;;;30.50;76.90;;;;;;5020637;28;20399;-60
2023/07/09 09:32:58;;;;;;;15.23;10.30;;;30.50;77.00;;;;;;5018806;28;20042;-62
2023/07/09 09:35:33;;;;;;;16.52;9.93;;;30.50;77.00;;;;;;5019455;28;20046;-61
2023/07/09 09:37:59;;;;;;;14.50;10.63;;;30.60;76.80;;;;;;5019583;28;20129;-60
2023/07/09 09:40:28;;;;;;;17.50;11.27;;;30.70;76.60;;;;;;5019193;28;20049;-61
2023/07/09 09:42:57;;;;;;;13.68;10.40;;;30.70;76.60;;;;;;5019589;28;20041;-61
2023/07/09 09:45:32;;;;;;;18.27;10.52;;;30.80;76.20;;;;;;5021196;28;20038;-60
2023/07/09 09:48:00;;;;;;;12.40;9.18;;;30.90;74.80;;;;;;5020572;28;20042;-61
2023/07/09 09:50:32;;;;;;;14.52;10.60;;;30.90;74.80;;;;;;5020791;28;20500;-61
2023/07/09 09:53:01;;;;;;;14.35;9.73;;;30.90;74.90;;;;;;5017869;28;20116;-60
2023/07/09 09:55:32;;;;;;;13.85;10.77;;;30.90;74.40;;;;;;5020345;28;20045;-62
2023/07/09 09:57:58;;;;;;;13.02;9.68;;;31.00;74.20;;;;;;5019539;28;20035;-60
2023/07/09 10:00:28;;;;;;;11.55;10.15;;;31.00;74.40;;;;;;5022323;28;20056;-58
2023/07/09 10:02:59;;;;;;;13.85;9.18;;;31.10;74.00;;;;;;5017586;28;20065;-60
2023/07/09 10:05:48;;;;;;;11.07;9.20;;;31.20;75.10;;;;;;5020850;28;20038;-60
2023/07/09 10:08:44;;;;;;;14.57;10.05;;;31.30;75.10;;;;;;5018608;28;20076;-60
2023/07/09 10:11:19;;;;;;;12.40;8.98;;;31.40;73.80;;;;;;5019990;28;20045;-60
2023/07/09 10:13:46;;;;;;;11.15;8.95;;;31.40;73.40;;;;;;5020272;28;20046;-60
2023/07/09 10:16:35;;;;;;;18.08;9.50;;;31.40;73.00;;;;;;5020367;28;20037;-60
2023/07/09 10:19:24;;;;;;;16.95;10.02;;;31.40;72.10;;;;;;5018910;28;20383;-60
2023/07/09 10:22:05;;;;;;;12.50;9.20;;;31.40;72.50;;;;;;5016504;28;20046;-60
2023/07/09 10:24:49;;;;;;;12.63;9.55;;;31.50;72.60;;;;;;5021963;28;20060;-61
2023/07/09 10:27:37;;;;;;;10.98;9.05;;;31.60;72.30;;;;;;5021885;28;20038;-61
2023/07/09 10:30:41;;;;;;;13.55;8.85;;;31.80;73.40;;;;;;5019886;28;20068;-61
2023/07/09 10:33:26;;;;;;;11.77;9.55;;;31.90;74.70;;;;;;5020732;28;20040;-61
2023/07/09 10:36:15;;;;;;;14.68;9.93;;;32.10;73.20;;;;;;5001530;28;20064;-62
2023/07/09 10:39:06;;;;;;;12.98;9.80;;;32.20;71.90;;;;;;5022152;28;20100;-61
2023/07/09 10:41:36;;;;;;;13.35;9.73;;;32.20;71.40;;;;;;5017739;28;20053;-60
2023/07/09 10:44:13;;;;;;;11.63;8.98;;;32.20;71.00;;;;;;5023794;28;20040;-60
2023/07/09 10:46:42;;;;;;;12.68;9.90;;;32.20;70.70;;;;;;5022801;28;20107;-60
2023/07/09 10:49:12;;;;;;;11.15;8.88;;;32.30;69.60;;;;;;5024221;28;20037;-60
2023/07/09 10:51:55;;;;;;;12.90;8.65;;;32.30;69.90;;;;;;5023020;28;20077;-60
2023/07/09 10:54:37;;;;;;;10.73;8.70;;;32.30;70.90;;;;;;5025048;28;20056;-60
2023/07/09 10:57:08;;;;;;;;;;;32.50;70.40;;;;;;5023352;28;20038;-60
2023/07/09 10:59:39;;;;;;;10.90;8.35;;;32.60;71.10;;;;;;5023634;28;19917;-59
2023/07/09 11:02:25;;;;;;;13.40;8.02;;;32.70;70.00;;;;;;5021430;28;20049;-60
2023/07/09 11:05:07;;;;;;;10.57;7.40;;;32.90;69.60;;;;;;5004677;28;20034;-61
2023/07/09 11:07:42;;;;;;;9.80;7.35;;;33.00;70.80;;;;;;5023415;28;20041;-59
2023/07/09 11:10:25;;;;;;;8.93;7.40;;;33.10;68.70;;;;;;5022001;28;20037;-60
2023/07/09 11:13:16;;;;;;;8.52;6.72;;;33.10;69.40;;;;;;5024843;28;20041;-58
2023/07/09 11:15:47;;;;;;;10.00;6.97;;;33.10;68.70;;;;;;4973561;28;20053;-59
2023/07/09 11:18:21;;;;;;;9.50;6.57;;;33.10;66.00;;;;;;5006249;28;20045;-59
2023/07/09 11:21:00;;;;;;;10.25;6.80;;;33.10;65.00;;;;;;5021043;28;20066;-59
2023/07/09 11:23:36;;;;;;;7.53;6.68;;;33.00;64.70;;;;;;5023606;28;20129;-59
2023/07/09 11:26:32;;;;;;;13.13;6.90;;;33.00;65.00;;;;;;5022211;28;20095;-60
2023/07/09 11:29:07;;;;;;;8.73;6.97;;;33.00;64.70;;;;;;5016624;28;20053;-59
2023/07/09 11:31:48;;;;;;;10.48;6.85;;;33.00;65.30;;;;;;5022473;28;20069;-58
2023/07/09 11:34:14;;;;;;;8.98;6.70;;;33.00;65.10;;;;;;4988961;28;20033;-59
2023/07/09 11:36:55;;;;;;;12.13;6.88;;;33.10;65.20;;;;;;5021873;28;20057;-59
2023/07/09 11:39:30;;;;;;;9.70;6.80;;;33.20;64.80;;;;;;5022456;28;20178;-60
2023/07/09 11:41:56;;;;;;;9.90;6.85;;;33.20;64.90;;;;;;5023301;28;20057;-59
2023/07/09 11:44:32;;;;;;;13.10;6.43;;;33.30;64.60;;;;;;5022600;28;20111;-59
2023/07/09 11:47:17;;;;;;;10.40;6.88;;;33.30;64.50;;;;;;5020730;28;20038;-59
2023/07/09 11:49:54;;;;;;;9.82;7.22;;;33.40;65.40;;;;;;5021065;28;20515;-59
2023/07/09 11:52:25;;;;;;;12.98;6.82;;;33.40;64.90;;;;;;5003549;28;20724;-58
2023/07/09 11:54:51;;;;;;;16.25;6.43;;;33.50;64.10;;;;;;5022917;28;20064;-59
2023/07/09 11:57:18;;;;;;;9.80;6.18;;;33.70;64.00;;;;;;5023726;28;20042;-59
2023/07/09 11:59:44;;;;;;;9.15;6.15;;;33.80;63.40;;;;;;5023806;28;20515;-60
2023/07/09 12:02:19;;;;;;;8.70;5.53;;;34.00;63.20;;;;;;5017908;28;20042;-59
2023/07/09 12:04:49;;;;;;;7.93;6.07;;;34.10;62.40;;;;;;5021596;28;20092;-59
2023/07/09 12:07:16;;;;;;;7.95;5.43;;;34.20;60.80;;;;;;5021485;28;20401;-60
2023/07/09 12:09:50;;;;;;;10.07;5.55;;;34.30;61.30;;;;;;5023424;28;20563;-59
2023/07/09 12:12:27;;;;;;;9.88;5.50;;;34.30;60.40;;;;;;5023185;28;20558;-59
2023/07/09 12:14:54;;;;;;;9.52;5.63;;;34.40;59.80;;;;;;5006214;28;20510;-59
2023/07/09 12:17:25;;;;;;;11.63;5.97;;;34.50;60.00;;;;;;5021594;28;20050;-59
2023/07/09 12:19:52;;;;;;;8.90;5.88;;;34.50;60.20;;;;;;5021746;28;20672;-59
2023/07/09 12:22:22;;;;;;;9.07;5.80;;;34.70;59.70;;;;;;5021209;28;20057;-60
2023/07/09 12:24:49;;;;;;;9.35;5.38;;;34.70;58.60;;;;;;5023464;28;20073;-60
2023/07/09 12:27:23;;;;;;;10.65;5.50;;;34.70;57.90;;;;;;5021665;28;20044;-60
2023/07/09 12:29:52;;;;;;;10.63;5.38;;;34.70;58.60;;;;;;5020967;28;20080;-60
2023/07/09 12:32:18;;;;;;;9.85;5.47;;;34.70;57.30;;;;;;5008274;28;20037;-60
2023/07/09 12:34:50;;;;;;;10.40;5.13;;;34.80;57.10;;;;;;5003123;28;20131;-59
2023/07/09 12:37:16;;;;;;;9.25;4.78;;;34.80;57.50;;;;;;5003746;28;20069;-60
2023/07/09 12:39:42;;;;;;;9.20;5.00;;;34.80;56.60;;;;;;5022586;28;20073;-60
2023/07/09 12:42:17;;;;;;;7.82;4.97;;;34.70;55.80;;;;;;5020205;28;20038;-60
2023/07/09 12:44:43;;;;;;;7.40;4.93;;;34.50;55.10;;;;;;5020681;28;20044;-60
2023/07/09 12:47:14;;;;;;;6.90;5.18;;;34.50;55.50;;;;;;5021183;28;20091;-60
2023/07/09 12:49:42;;;;;;;7.90;5.07;;;34.50;55.50;;;;;;5021279;28;20048;-60
2023/07/09 12:52:19;;;;;;;16.15;5.90;;;34.50;55.70;;;;;;5020656;28;20045;-60
2023/07/09 12:54:59;;;;;;;9.63;5.70;;;34.50;55.30;;;;;;5022412;28;20052;-60